createdAt,value
2018-12-31T00:02:04.776Z,102763.31
2018-12-31T00:04:33.683Z,102757.41
2018-12-31T00:07:02.581Z,102763.41
2018-12-31T00:09:31.477Z,102756.53
2018-12-31T00:12:00.451Z,102764.58
2018-12-31T00:14:29.284Z,102761.08
2018-12-31T00:16:58.174Z,102756.63
2018-12-31T00:19:27.115Z,102753.61
2018-12-31T00:21:56.029Z,102769.88
2018-12-31T00:24:24.933Z,102773.28
2018-12-31T00:26:53.879Z,102765.41
2018-12-31T00:29:22.784Z,102768.25
2018-12-31T00:31:51.683Z,102766.51
2018-12-31T00:34:20.588Z,102760.60
2018-12-31T00:36:49.466Z,102760.78
2018-12-31T00:39:18.383Z,102759.63
2018-12-31T00:41:47.267Z,102757.28
2018-12-31T00:44:16.171Z,102769.13
2018-12-31T00:46:45.084Z,102772.11
2018-12-31T00:49:13.990Z,102767.08
2018-12-31T00:51:42.885Z,102774.03
2018-12-31T00:54:11.831Z,102770.53
2018-12-31T00:56:40.709Z,102777.27
2018-12-31T00:59:09.661Z,102773.69
2018-12-31T01:01:38.547Z,102776.57
2018-12-31T01:04:07.451Z,102773.02
2018-12-31T01:06:36.365Z,102782.39
2018-12-31T01:09:07.253Z,102781.82
2018-12-31T01:11:36.092Z,102791.31
2018-12-31T01:14:05.020Z,102787.94
2018-12-31T01:16:33.898Z,102787.24
2018-12-31T01:19:02.813Z,102794.59
2018-12-31T01:21:31.701Z,102792.97
2018-12-31T01:24:00.610Z,102797.08
2018-12-31T01:26:29.509Z,102802.30
2018-12-31T01:28:58.436Z,102799.97
2018-12-31T01:31:27.374Z,102803.47
2018-12-31T01:33:56.264Z,102789.61
2018-12-31T01:36:25.184Z,102790.20
2018-12-31T01:38:54.148Z,102790.00
2018-12-31T01:41:23.037Z,102786.80
2018-12-31T01:43:51.959Z,102793.50
2018-12-31T01:46:20.847Z,102795.73
2018-12-31T01:48:49.745Z,102796.48
2018-12-31T01:51:18.656Z,102791.45
2018-12-31T01:53:47.566Z,102790.78
2018-12-31T01:56:16.462Z,102795.61
2018-12-31T01:58:45.404Z,102792.23
2018-12-31T02:01:14.311Z,102794.73
2018-12-31T02:03:43.205Z,102792.02
2018-12-31T02:06:12.126Z,102795.13
2018-12-31T02:08:40.998Z,102801.69
2018-12-31T02:11:09.933Z,102795.78
2018-12-31T02:13:38.816Z,102804.00
2018-12-31T02:16:07.777Z,102794.16
2018-12-31T02:18:36.681Z,102787.98
2018-12-31T02:21:05.605Z,102796.00
2018-12-31T02:23:34.581Z,102792.72
2018-12-31T02:26:03.423Z,102786.65
2018-12-31T02:28:32.319Z,102791.45
2018-12-31T02:31:01.254Z,102788.34
2018-12-31T02:33:30.145Z,102791.75
2018-12-31T02:35:59.043Z,102781.77
2018-12-31T02:38:27.951Z,102780.59
2018-12-31T02:40:56.851Z,102775.86
2018-12-31T02:43:25.777Z,102783.94
2018-12-31T02:45:54.670Z,102789.04
2018-12-31T02:48:23.589Z,102791.53
2018-12-31T02:50:52.487Z,102795.52
2018-12-31T02:53:21.411Z,102785.54
2018-12-31T02:55:50.338Z,102794.73
2018-12-31T02:58:19.226Z,102789.30
2018-12-31T03:00:48.134Z,102788.91
2018-12-31T03:03:17.036Z,102792.11
2018-12-31T03:05:45.956Z,102787.55
2018-12-31T03:08:14.844Z,102788.82
2018-12-31T03:10:43.828Z,102786.37
2018-12-31T03:13:12.657Z,102780.68
2018-12-31T03:15:41.572Z,102783.00
2018-12-31T03:18:10.491Z,102776.80
2018-12-31T03:20:39.418Z,102776.88
2018-12-31T03:23:08.355Z,102775.34
2018-12-31T03:25:37.268Z,102776.97
2018-12-31T03:28:06.238Z,102778.32
2018-12-31T03:30:35.180Z,102773.02
2018-12-31T03:33:04.083Z,102776.97
2018-12-31T03:35:33.032Z,102775.04
2018-12-31T03:38:05.119Z,102773.77
2018-12-31T03:40:34.054Z,102773.98
2018-12-31T03:43:02.945Z,102765.24
2018-12-31T03:45:31.852Z,102781.03
2018-12-31T03:48:00.771Z,102773.50
2018-12-31T03:50:29.680Z,102772.33
2018-12-31T03:52:58.605Z,102764.77
2018-12-31T03:55:27.469Z,102765.09
2018-12-31T03:57:56.384Z,102773.12
2018-12-31T04:00:25.304Z,102769.34
2018-12-31T04:02:54.241Z,102776.09
2018-12-31T04:05:23.177Z,102773.20
2018-12-31T04:07:53.356Z,102773.50
2018-12-31T04:10:21.013Z,102780.06
2018-12-31T04:12:49.968Z,102779.58
2018-12-31T04:15:18.853Z,102779.58
2018-12-31T04:17:47.743Z,102775.78
2018-12-31T04:20:16.661Z,102775.59
2018-12-31T04:22:45.549Z,102778.49
2018-12-31T04:25:14.488Z,102778.58
2018-12-31T04:27:43.390Z,102781.97
2018-12-31T04:30:12.289Z,102775.26
2018-12-31T04:32:41.201Z,102791.32
2018-12-31T04:35:10.150Z,102787.46
2018-12-31T04:37:39.035Z,102793.84
2018-12-31T04:40:07.961Z,102787.81
2018-12-31T04:42:36.865Z,102790.52
2018-12-31T04:45:05.909Z,102788.86
2018-12-31T04:47:34.838Z,102786.44
2018-12-31T04:50:03.774Z,102790.98
2018-12-31T04:52:32.686Z,102790.20
2018-12-31T04:55:01.593Z,102790.69
2018-12-31T04:57:30.537Z,102796.09
2018-12-31T04:59:59.432Z,102789.70
2018-12-31T05:02:28.335Z,102794.25
2018-12-31T05:04:57.320Z,102785.00
2018-12-31T05:07:26.244Z,102798.16
2018-12-31T05:09:55.179Z,102800.30
2018-12-31T05:12:24.044Z,102803.19
2018-12-31T05:14:52.963Z,102791.25
2018-12-31T05:17:21.876Z,102800.08
2018-12-31T05:19:50.815Z,102806.08
2018-12-31T05:22:19.723Z,102800.26
2018-12-31T05:24:48.677Z,102806.86
2018-12-31T05:27:17.589Z,102804.72
2018-12-31T05:29:46.507Z,102800.17
2018-12-31T05:32:15.451Z,102803.05
2018-12-31T05:34:44.356Z,102805.68
2018-12-31T05:37:13.270Z,102808.09
2018-12-31T05:39:42.145Z,102801.30
2018-12-31T05:42:11.057Z,102810.91
2018-12-31T05:44:39.942Z,102808.09
2018-12-31T05:47:08.898Z,102815.66
2018-12-31T05:49:37.808Z,102811.67
2018-12-31T05:52:06.724Z,102819.92
2018-12-31T05:54:35.657Z,102821.64
2018-12-31T05:57:04.564Z,102818.66
2018-12-31T05:59:33.487Z,102818.66
2018-12-31T06:02:02.365Z,102823.11
2018-12-31T06:04:31.251Z,102826.50
2018-12-31T06:07:00.166Z,102828.81
2018-12-31T06:09:29.071Z,102833.67
2018-12-31T06:11:58.013Z,102836.47
2018-12-31T06:14:26.968Z,102832.61
2018-12-31T06:16:55.921Z,102832.69
2018-12-31T06:19:24.826Z,102840.74
2018-12-31T06:21:53.717Z,102839.80
2018-12-31T06:24:22.638Z,102843.95
2018-12-31T06:26:51.528Z,102847.60
2018-12-31T06:29:20.468Z,102847.39
2018-12-31T06:31:49.385Z,102849.04
2018-12-31T06:34:18.313Z,102854.35
2018-12-31T06:36:47.212Z,102842.44
2018-12-31T06:39:16.131Z,102846.11
2018-12-31T06:41:45.032Z,102848.53
2018-12-31T06:44:13.942Z,102855.11
2018-12-31T06:46:42.847Z,102849.52
2018-12-31T06:49:11.760Z,102848.25
2018-12-31T06:51:40.638Z,102852.81
2018-12-31T06:54:09.543Z,102858.36
2018-12-31T06:56:38.433Z,102854.23
2018-12-31T06:59:07.358Z,102853.67
2018-12-31T07:01:36.260Z,102859.11
2018-12-31T07:04:05.209Z,102861.48
2018-12-31T07:06:34.090Z,102866.89
2018-12-31T07:09:03.015Z,102868.14
2018-12-31T07:11:31.940Z,102876.73
2018-12-31T07:14:00.858Z,102880.63
2018-12-31T07:16:29.768Z,102883.97
2018-12-31T07:18:58.679Z,102884.51
2018-12-31T07:21:27.638Z,102890.41
2018-12-31T07:23:56.537Z,102896.09
2018-12-31T07:26:25.421Z,102891.20
2018-12-31T07:28:54.356Z,102905.18
2018-12-31T07:31:23.230Z,102906.84
2018-12-31T07:33:52.152Z,102906.39
2018-12-31T07:36:21.122Z,102917.23
2018-12-31T07:38:49.987Z,102904.30
2018-12-31T07:41:18.924Z,102912.13
2018-12-31T07:43:47.828Z,102913.39
2018-12-31T07:46:16.767Z,102920.03
2018-12-31T07:48:45.701Z,102917.88
2018-12-31T07:51:14.632Z,102936.24
2018-12-31T07:53:43.534Z,102926.56
2018-12-31T07:56:12.449Z,102931.23
2018-12-31T07:58:41.367Z,102933.17
2018-12-31T08:01:10.283Z,102930.55
2018-12-31T08:03:39.206Z,102929.41
2018-12-31T08:06:08.321Z,102936.86
2018-12-31T08:08:37.275Z,102937.55
2018-12-31T08:11:06.410Z,102944.88
2018-12-31T08:13:35.313Z,102942.56
2018-12-31T08:16:04.311Z,102941.21
2018-12-31T08:18:33.402Z,102941.13
2018-12-31T08:21:02.313Z,102944.01
2018-12-31T08:23:31.213Z,102939.14
2018-12-31T08:26:00.157Z,102936.27
2018-12-31T08:28:29.049Z,102942.01
2018-12-31T08:30:57.976Z,102946.47
2018-12-31T08:33:26.875Z,102938.81
2018-12-31T08:35:55.809Z,102942.17
2018-12-31T08:38:24.803Z,102942.80
2018-12-31T08:40:53.692Z,102941.92
2018-12-31T08:43:22.645Z,102940.77
2018-12-31T08:45:51.561Z,102946.67
2018-12-31T08:48:20.462Z,102943.64
2018-12-31T08:50:49.354Z,102941.04
2018-12-31T08:53:18.268Z,102934.42
2018-12-31T08:55:47.166Z,102938.19
2018-12-31T08:58:16.082Z,102949.02
2018-12-31T09:00:45.013Z,102944.69
2018-12-31T09:03:13.920Z,102936.93
2018-12-31T09:05:42.833Z,102945.19
2018-12-31T09:08:11.815Z,102943.05
2018-12-31T09:10:40.729Z,102945.76
2018-12-31T09:13:09.891Z,102941.38
2018-12-31T09:15:38.800Z,102945.36
2018-12-31T09:18:07.802Z,102944.41
2018-12-31T09:20:36.703Z,102944.15
2018-12-31T09:23:05.724Z,102945.90
2018-12-31T09:25:34.652Z,102947.25
2018-12-31T09:28:03.604Z,102951.33
2018-12-31T09:30:32.479Z,102951.98
2018-12-31T09:33:01.354Z,102955.19
2018-12-31T09:35:30.273Z,102957.42
2018-12-31T09:37:59.150Z,102963.38
2018-12-31T09:40:28.056Z,102960.84
2018-12-31T09:42:56.925Z,102956.29
2018-12-31T09:45:25.816Z,102960.62
2018-12-31T09:47:54.708Z,102964.59
2018-12-31T09:50:23.623Z,102963.33
2018-12-31T09:52:52.513Z,102960.62
2018-12-31T09:55:21.430Z,102971.78
2018-12-31T09:57:50.349Z,102972.28
2018-12-31T10:00:19.269Z,102972.11
2018-12-31T10:02:48.209Z,102964.67
2018-12-31T10:05:17.116Z,102963.31
2018-12-31T10:07:46.044Z,102967.09
2018-12-31T10:10:14.954Z,102967.66
2018-12-31T10:12:43.873Z,102961.47
2018-12-31T10:15:12.774Z,102970.27
2018-12-31T10:17:41.710Z,102958.94
2018-12-31T10:20:10.622Z,102957.41
2018-12-31T10:22:39.537Z,102955.36
2018-12-31T10:25:08.547Z,102951.98
2018-12-31T10:27:37.468Z,102954.97
2018-12-31T10:30:06.474Z,102943.67
2018-12-31T10:32:35.409Z,102951.91
2018-12-31T10:35:04.306Z,102948.25
2018-12-31T10:37:33.227Z,102950.96
2018-12-31T10:40:02.128Z,102945.09
2018-12-31T10:42:31.011Z,102941.28
2018-12-31T10:44:59.924Z,102944.22
2018-12-31T10:47:28.817Z,102937.12
2018-12-31T10:49:57.757Z,102943.91
2018-12-31T10:52:26.671Z,102942.95
2018-12-31T10:54:55.576Z,102936.50
2018-12-31T10:57:24.494Z,102934.27
2018-12-31T10:59:53.410Z,102938.13
2018-12-31T11:02:23.331Z,102938.64
2018-12-31T11:04:51.243Z,102932.33
2018-12-31T11:07:20.144Z,102927.38
2018-12-31T11:09:49.064Z,102927.30
2018-12-31T11:12:17.939Z,102932.33
2018-12-31T11:14:46.908Z,102930.19
2018-12-31T11:17:15.776Z,102931.55
2018-12-31T11:20:20.624Z,102926.81
2018-12-31T11:22:49.563Z,102929.05
2018-12-31T11:25:18.539Z,102928.65
2018-12-31T11:27:47.446Z,102933.59
2018-12-31T11:30:16.401Z,102920.80
2018-12-31T11:32:45.306Z,102927.59
2018-12-31T11:35:14.210Z,102923.33
2018-12-31T11:37:43.138Z,102925.73
2018-12-31T11:40:12.065Z,102919.44
2018-12-31T11:42:40.947Z,102921.42
2018-12-31T11:45:09.934Z,102923.70
2018-12-31T11:47:38.820Z,102919.03
2018-12-31T11:50:07.850Z,102914.09
2018-12-31T11:52:36.765Z,102913.90
2018-12-31T11:55:05.751Z,102907.42
2018-12-31T11:57:34.651Z,102900.72
2018-12-31T12:00:03.685Z,102901.78
2018-12-31T12:02:32.572Z,102892.45
2018-12-31T12:05:01.497Z,102892.84
2018-12-31T12:07:30.384Z,102891.79
2018-12-31T12:09:59.645Z,102891.30
2018-12-31T12:12:28.229Z,102886.27
2018-12-31T12:14:57.144Z,102888.89
2018-12-31T12:17:26.075Z,102883.94
2018-12-31T12:19:54.958Z,102880.64
2018-12-31T12:22:23.895Z,102879.08
2018-12-31T12:24:52.775Z,102875.48
2018-12-31T12:27:21.870Z,102873.65
2018-12-31T12:29:50.759Z,102873.23
2018-12-31T12:32:19.666Z,102873.91
2018-12-31T12:34:48.581Z,102873.06
2018-12-31T12:37:17.495Z,102872.66
2018-12-31T12:39:46.389Z,102860.55
2018-12-31T12:42:15.309Z,102857.61
2018-12-31T12:44:44.200Z,102865.11
2018-12-31T12:47:13.140Z,102861.03
2018-12-31T12:49:42.052Z,102864.63
2018-12-31T12:52:10.953Z,102866.92
2018-12-31T12:54:39.874Z,102861.08
2018-12-31T12:57:08.905Z,102859.25
2018-12-31T12:59:37.836Z,102857.51
2018-12-31T13:02:06.876Z,102863.39
2018-12-31T13:04:35.745Z,102857.67
2018-12-31T13:07:04.680Z,102871.42
2018-12-31T13:09:33.614Z,102871.97
2018-12-31T13:12:02.496Z,102870.69
2018-12-31T13:14:31.426Z,102866.90
2018-12-31T13:17:00.315Z,102866.05
2018-12-31T13:19:29.241Z,102866.93
2018-12-31T13:21:58.134Z,102870.72
2018-12-31T13:24:27.030Z,102871.63
2018-12-31T13:26:55.972Z,102872.72
2018-12-31T13:29:24.834Z,102871.00
2018-12-31T13:31:53.726Z,102868.95
2018-12-31T13:34:22.667Z,102874.41
2018-12-31T13:36:51.576Z,102867.34
2018-12-31T13:39:20.492Z,102872.38
2018-12-31T13:41:49.406Z,102874.20
2018-12-31T13:44:18.338Z,102876.08
2018-12-31T13:46:47.233Z,102876.08
2018-12-31T13:49:16.143Z,102874.22
2018-12-31T13:51:45.042Z,102873.56
2018-12-31T13:54:13.945Z,102873.75
2018-12-31T13:56:42.834Z,102877.13
2018-12-31T13:59:11.724Z,102869.76
2018-12-31T14:01:40.676Z,102873.36
2018-12-31T14:04:09.533Z,102870.05
2018-12-31T14:06:38.453Z,102872.20
2018-12-31T14:09:07.845Z,102877.81
2018-12-31T14:11:36.718Z,102879.23
2018-12-31T14:14:05.734Z,102882.83
2018-12-31T14:16:34.610Z,102882.22
2018-12-31T14:19:03.518Z,102879.02
2018-12-31T14:21:32.437Z,102871.14
2018-12-31T14:24:01.346Z,102871.54
2018-12-31T14:26:30.264Z,102874.95
2018-12-31T14:28:59.159Z,102875.52
2018-12-31T14:31:28.057Z,102877.75
2018-12-31T14:33:57.001Z,102875.52
2018-12-31T14:36:25.888Z,102877.23
2018-12-31T14:38:54.808Z,102887.07
2018-12-31T14:41:23.710Z,102881.52
2018-12-31T14:43:52.605Z,102879.28
2018-12-31T14:46:23.013Z,102875.22
2018-12-31T14:48:50.448Z,102883.84
2018-12-31T14:51:19.359Z,102878.70
2018-12-31T14:53:48.298Z,102887.11
2018-12-31T14:56:17.203Z,102888.47
2018-12-31T14:58:46.093Z,102896.12
2018-12-31T15:01:15.019Z,102893.11
2018-12-31T15:03:43.926Z,102897.58
2018-12-31T15:06:12.808Z,102893.01
2018-12-31T15:08:41.743Z,102897.43
2018-12-31T15:11:10.622Z,102894.06
2018-12-31T15:13:39.583Z,102895.88
2018-12-31T15:16:08.624Z,102891.45
2018-12-31T15:18:37.546Z,102894.42
2018-12-31T15:21:06.580Z,102893.25
2018-12-31T15:23:35.461Z,102893.23
2018-12-31T15:26:04.456Z,102892.23
2018-12-31T15:28:33.395Z,102894.47
2018-12-31T15:31:02.295Z,102899.23
2018-12-31T15:33:31.209Z,102906.97
2018-12-31T15:36:00.118Z,102899.23
2018-12-31T15:38:29.065Z,102901.02
2018-12-31T15:40:57.950Z,102896.76
2018-12-31T15:43:26.872Z,102908.74
2018-12-31T15:45:55.766Z,102911.27
2018-12-31T15:48:24.659Z,102914.55
2018-12-31T15:50:53.586Z,102911.15
2018-12-31T15:53:22.493Z,102912.62
2018-12-31T15:55:51.389Z,102914.64
2018-12-31T15:58:20.298Z,102912.64
2018-12-31T16:00:49.193Z,102910.65
2018-12-31T16:03:18.093Z,102913.50
2018-12-31T16:05:46.970Z,102917.83
2018-12-31T16:08:15.885Z,102917.27
2018-12-31T16:10:44.779Z,102918.93
2018-12-31T16:13:13.657Z,102918.42
2018-12-31T16:15:42.612Z,102922.66
2018-12-31T16:18:11.687Z,102915.40
2018-12-31T16:20:40.601Z,102920.52
2018-12-31T16:23:09.493Z,102918.88
2018-12-31T16:25:38.386Z,102911.39
2018-12-31T16:28:07.397Z,102917.69
2018-12-31T16:30:36.177Z,102908.28
2018-12-31T16:33:05.084Z,102906.93
2018-12-31T16:35:33.993Z,102906.22
2018-12-31T16:38:02.898Z,102902.36
2018-12-31T16:40:31.823Z,102896.09
2018-12-31T16:43:00.705Z,102895.21
2018-12-31T16:45:29.627Z,102890.16
2018-12-31T16:47:58.542Z,102882.95
2018-12-31T16:50:27.422Z,102885.97
2018-12-31T16:52:56.332Z,102887.58
2018-12-31T16:55:25.247Z,102888.58
2018-12-31T16:57:54.176Z,102890.77
2018-12-31T17:00:23.088Z,102885.24
2018-12-31T17:02:51.996Z,102881.06
2018-12-31T17:05:20.896Z,102883.47
2018-12-31T17:07:49.802Z,102880.47
2018-12-31T17:10:18.709Z,102878.75
2018-12-31T17:12:47.594Z,102880.95
2018-12-31T17:15:16.490Z,102875.61
2018-12-31T17:17:45.392Z,102883.27
2018-12-31T17:20:14.302Z,102879.70
2018-12-31T17:22:43.182Z,102874.91
2018-12-31T17:25:12.081Z,102880.47
2018-12-31T17:27:40.966Z,102882.63
2018-12-31T17:30:09.899Z,102878.73
2018-12-31T17:32:38.806Z,102876.31
2018-12-31T17:35:07.764Z,102879.90
2018-12-31T17:37:36.659Z,102871.63
2018-12-31T17:40:05.611Z,102876.15
2018-12-31T17:42:34.540Z,102877.08
2018-12-31T17:45:03.448Z,102874.05
2018-12-31T17:47:32.359Z,102875.05
2018-12-31T17:50:01.243Z,102874.81
2018-12-31T17:52:30.150Z,102874.40
2018-12-31T17:54:59.064Z,102865.45
2018-12-31T17:57:27.969Z,102861.61
2018-12-31T17:59:56.901Z,102855.40
2018-12-31T18:02:25.836Z,102852.94
2018-12-31T18:04:55.037Z,102853.84
2018-12-31T18:07:23.915Z,102863.09
2018-12-31T18:09:52.825Z,102869.55
2018-12-31T18:12:21.719Z,102863.72
2018-12-31T18:14:50.618Z,102868.41
2018-12-31T18:17:19.521Z,102866.27
2018-12-31T18:19:48.438Z,102861.49
2018-12-31T18:22:17.353Z,102866.24
2018-12-31T18:24:46.262Z,102868.75
2018-12-31T18:27:15.174Z,102863.13
2018-12-31T18:29:44.051Z,102858.75
2018-12-31T18:32:12.945Z,102861.69
2018-12-31T18:34:41.842Z,102866.83
2018-12-31T18:37:10.748Z,102866.55
2018-12-31T18:39:39.616Z,102865.64
2018-12-31T18:42:08.571Z,102867.16
2018-12-31T18:44:37.469Z,102870.02
2018-12-31T18:47:06.451Z,102872.94
2018-12-31T18:49:35.344Z,102865.92
2018-12-31T18:52:04.261Z,102869.28
2018-12-31T18:54:33.141Z,102875.08
2018-12-31T18:57:02.061Z,102865.31
2018-12-31T18:59:30.934Z,102864.34
2018-12-31T19:01:59.836Z,102865.56
2018-12-31T19:04:28.755Z,102865.43
2018-12-31T19:06:57.665Z,102858.23
2018-12-31T19:09:26.561Z,102864.52
2018-12-31T19:11:55.452Z,102855.98
2018-12-31T19:14:24.346Z,102856.38
2018-12-31T19:16:53.253Z,102853.25
2018-12-31T19:19:22.169Z,102848.48
2018-12-31T19:21:51.055Z,102846.53
2018-12-31T19:24:19.987Z,102845.45
2018-12-31T19:26:48.888Z,102845.53
2018-12-31T19:29:17.798Z,102844.89
2018-12-31T19:31:46.684Z,102851.19
2018-12-31T19:34:15.566Z,102842.97
2018-12-31T19:36:44.495Z,102844.33
2018-12-31T19:39:13.388Z,102832.28
2018-12-31T19:41:42.292Z,102828.23
2018-12-31T19:44:11.184Z,102828.44
2018-12-31T19:46:40.127Z,102830.61
2018-12-31T19:49:09.008Z,102816.08
2018-12-31T19:51:37.907Z,102821.72
2018-12-31T19:54:06.850Z,102823.75
2018-12-31T19:56:35.771Z,102820.31
2018-12-31T19:59:04.663Z,102818.28
2018-12-31T20:01:33.577Z,102821.86
2018-12-31T20:04:02.461Z,102822.45
2018-12-31T20:06:31.340Z,102817.83
2018-12-31T20:09:00.242Z,102823.02
2018-12-31T20:11:29.129Z,102818.39
2018-12-31T20:13:58.015Z,102815.82
2018-12-31T20:16:26.930Z,102806.65
2018-12-31T20:18:55.853Z,102803.86
2018-12-31T20:21:24.787Z,102804.53
2018-12-31T20:23:53.658Z,102799.95
2018-12-31T20:26:22.549Z,102798.03
2018-12-31T20:28:51.474Z,102800.66
2018-12-31T20:31:20.347Z,102805.59
2018-12-31T20:33:49.298Z,102804.55
2018-12-31T20:36:18.219Z,102795.39
2018-12-31T20:38:47.157Z,102790.11
2018-12-31T20:41:16.006Z,102798.91
2018-12-31T20:43:44.910Z,102791.08
2018-12-31T20:46:13.823Z,102802.31
2018-12-31T20:48:42.705Z,102798.02
2018-12-31T20:51:11.625Z,102811.23
2018-12-31T20:53:40.548Z,102800.88
2018-12-31T20:56:09.520Z,102801.56
2018-12-31T20:58:38.407Z,102799.72
2018-12-31T21:01:07.342Z,102794.23
2018-12-31T21:03:36.226Z,102796.41
2018-12-31T21:06:05.094Z,102792.08
2018-12-31T21:08:34.010Z,102793.03
2018-12-31T21:11:02.899Z,102779.23
2018-12-31T21:13:31.820Z,102781.38
2018-12-31T21:16:00.702Z,102776.48
2018-12-31T21:18:29.613Z,102777.72
2018-12-31T21:20:58.532Z,102775.09
2018-12-31T21:23:27.449Z,102779.66
2018-12-31T21:25:56.337Z,102779.97
2018-12-31T21:28:25.311Z,102778.47
2018-12-31T21:30:54.132Z,102774.06
2018-12-31T21:33:23.034Z,102782.84
2018-12-31T21:35:51.918Z,102782.45
2018-12-31T21:38:20.786Z,102781.58
2018-12-31T21:40:49.687Z,102777.20
2018-12-31T21:43:18.568Z,102778.59
2018-12-31T21:45:47.460Z,102781.48
2018-12-31T21:48:16.336Z,102781.14
2018-12-31T21:50:45.237Z,102775.96
2018-12-31T21:53:14.136Z,102770.70
2018-12-31T21:55:43.066Z,102755.34
2018-12-31T21:58:11.927Z,102758.45
2018-12-31T22:00:40.821Z,102753.95
2018-12-31T22:03:09.790Z,102755.58
2018-12-31T22:05:38.665Z,102754.22
2018-12-31T22:08:07.584Z,102752.73
2018-12-31T22:10:36.480Z,102742.64
2018-12-31T22:13:05.409Z,102749.37
2018-12-31T22:15:34.310Z,102751.94
2018-12-31T22:18:03.195Z,102747.67
2018-12-31T22:20:32.060Z,102734.15
2018-12-31T22:23:00.984Z,102741.77
2018-12-31T22:25:29.896Z,102742.47
2018-12-31T22:27:58.798Z,102743.88
2018-12-31T22:30:27.693Z,102737.98
2018-12-31T22:32:56.602Z,102736.66
2018-12-31T22:35:25.505Z,102733.11
2018-12-31T22:37:54.397Z,102722.80
2018-12-31T22:40:23.262Z,102719.94
2018-12-31T22:42:52.183Z,102725.80
2018-12-31T22:45:21.069Z,102712.75
2018-12-31T22:47:49.970Z,102716.02
2018-12-31T22:50:18.877Z,102713.86
2018-12-31T22:52:47.750Z,102719.75
2018-12-31T22:55:16.625Z,102719.48
2018-12-31T22:57:45.554Z,102710.05
2018-12-31T23:00:14.474Z,102706.47
2018-12-31T23:02:43.336Z,102691.67
2018-12-31T23:05:13.314Z,102698.44
2018-12-31T23:07:42.492Z,102707.34
2018-12-31T23:10:11.412Z,102703.81
2018-12-31T23:12:40.323Z,102699.86
2018-12-31T23:15:12.971Z,102691.20
2018-12-31T23:17:41.858Z,102691.44
2018-12-31T23:20:11.571Z,102696.05
2018-12-31T23:22:40.468Z,102700.94
2018-12-31T23:25:09.349Z,102700.42
2018-12-31T23:27:38.260Z,102704.61
2018-12-31T23:30:08.608Z,102705.88
2018-12-31T23:32:37.504Z,102698.77
2018-12-31T23:35:06.884Z,102700.12
2018-12-31T23:37:36.866Z,102697.13
2018-12-31T23:40:07.394Z,102686.08
2018-12-31T23:42:36.335Z,102683.21
2018-12-31T23:45:05.706Z,102673.78
2018-12-31T23:47:34.584Z,102678.95
2018-12-31T23:50:03.536Z,102680.62
2018-12-31T23:52:32.455Z,102685.20
2018-12-31T23:55:01.531Z,102685.12
2018-12-31T23:57:30.225Z,102687.19
2018-12-31T23:59:59.173Z,102691.41
